createdAt,value
2019-05-28T00:00:40.613Z,0.00
2019-05-28T00:01:40.644Z,0.00
2019-05-28T00:02:40.618Z,0.00
2019-05-28T00:03:40.613Z,0.00
2019-05-28T00:04:40.614Z,0.00
2019-05-28T00:05:40.610Z,0.00
2019-05-28T00:06:40.647Z,0.00
2019-05-28T00:07:40.611Z,0.00
2019-05-28T00:08:40.621Z,0.00
2019-05-28T00:09:40.621Z,0.00
2019-05-28T00:10:40.611Z,0.00
2019-05-28T00:11:40.637Z,0.00
2019-05-28T00:12:40.614Z,0.00
2019-05-28T00:13:40.614Z,0.00
2019-05-28T00:14:40.613Z,0.00
2019-05-28T00:15:40.620Z,0.00
2019-05-28T00:16:40.638Z,0.00
2019-05-28T00:17:40.618Z,0.00
2019-05-28T00:18:40.607Z,0.00
2019-05-28T00:19:40.614Z,0.00
2019-05-28T00:20:40.610Z,0.00
2019-05-28T00:21:40.645Z,0.00
2019-05-28T00:22:40.607Z,0.00
2019-05-28T00:23:40.610Z,0.00
2019-05-28T00:24:40.608Z,0.00
2019-05-28T00:25:40.606Z,0.00
2019-05-28T00:26:40.635Z,0.00
2019-05-28T00:27:40.611Z,0.00
2019-05-28T00:28:40.610Z,0.00
2019-05-28T00:29:40.601Z,0.00
2019-05-28T00:30:40.611Z,0.00
2019-05-28T00:31:40.628Z,0.00
2019-05-28T00:32:40.609Z,0.00
2019-05-28T00:33:40.668Z,0.00
2019-05-28T00:34:40.600Z,0.00
2019-05-28T00:35:40.600Z,0.00
2019-05-28T00:36:40.633Z,0.00
2019-05-28T00:37:40.601Z,0.00
2019-05-28T00:38:40.607Z,0.00
2019-05-28T00:39:40.601Z,0.00
2019-05-28T00:40:40.593Z,0.00
2019-05-28T00:41:40.625Z,0.00
2019-05-28T00:42:40.606Z,0.00
2019-05-28T00:43:40.595Z,0.00
2019-05-28T00:44:40.595Z,0.00
2019-05-28T00:45:40.600Z,0.00
2019-05-28T00:46:40.634Z,0.00
2019-05-28T00:47:40.592Z,0.00
2019-05-28T00:48:40.596Z,0.00
2019-05-28T00:49:40.596Z,0.00
2019-05-28T00:50:40.610Z,0.00
2019-05-28T00:51:40.618Z,0.00
2019-05-28T00:52:40.625Z,0.00
2019-05-28T00:53:40.590Z,0.00
2019-05-28T00:54:40.588Z,0.00
2019-05-28T00:55:40.600Z,0.00
2019-05-28T00:56:40.611Z,0.00
2019-05-28T00:57:40.621Z,0.00
2019-05-28T00:58:40.589Z,0.00
2019-05-28T00:59:40.594Z,0.00
2019-05-28T01:00:41.398Z,0.00
2019-05-28T01:01:40.590Z,0.00
2019-05-28T01:02:40.618Z,0.00
2019-05-28T01:03:40.598Z,0.00
2019-05-28T01:04:40.608Z,0.00
2019-05-28T01:05:40.586Z,0.00
2019-05-28T01:06:40.606Z,0.00
2019-05-28T01:07:40.619Z,0.00
2019-05-28T01:08:40.587Z,0.00
2019-05-28T01:09:40.590Z,0.00
2019-05-28T01:10:40.587Z,0.00
2019-05-28T01:11:40.612Z,0.00
2019-05-28T01:12:40.619Z,0.00
2019-05-28T01:13:40.581Z,0.00
2019-05-28T01:14:40.592Z,0.00
2019-05-28T01:15:40.592Z,0.00
2019-05-28T01:16:40.586Z,0.00
2019-05-28T01:17:40.613Z,0.00
2019-05-28T01:18:40.584Z,0.00
2019-05-28T01:19:40.588Z,0.00
2019-05-28T01:20:40.583Z,0.00
2019-05-28T01:21:42.513Z,0.00
2019-05-28T01:22:40.619Z,0.00
2019-05-28T01:23:40.588Z,0.00
2019-05-28T01:24:40.585Z,0.00
2019-05-28T01:25:40.582Z,0.00
2019-05-28T01:26:40.586Z,0.00
2019-05-28T01:27:40.604Z,0.00
2019-05-28T01:28:40.585Z,0.00
2019-05-28T01:29:40.582Z,0.00
2019-05-28T01:30:54.923Z,0.00
2019-05-28T01:31:40.577Z,0.00
2019-05-28T01:32:40.612Z,0.00
2019-05-28T01:33:40.575Z,0.00
2019-05-28T01:34:40.577Z,0.00
2019-05-28T01:35:40.576Z,0.00
2019-05-28T01:36:40.583Z,0.00
2019-05-28T01:37:40.600Z,0.00
2019-05-28T01:38:40.570Z,0.00
2019-05-28T01:39:40.573Z,0.00
2019-05-28T01:40:41.502Z,0.00
2019-05-28T01:41:40.573Z,0.00
2019-05-28T01:42:40.601Z,0.00
2019-05-28T01:43:40.565Z,0.00
2019-05-28T01:44:40.566Z,0.00
2019-05-28T01:45:40.568Z,0.00
2019-05-28T01:46:40.577Z,0.00
2019-05-28T01:47:40.599Z,0.00
2019-05-28T01:48:40.574Z,0.00
2019-05-28T01:49:40.574Z,0.00
2019-05-28T01:50:40.578Z,0.00
2019-05-28T01:51:40.568Z,0.00
2019-05-28T01:52:40.595Z,0.00
2019-05-28T01:53:40.567Z,0.00
2019-05-28T01:54:40.572Z,0.00
2019-05-28T01:55:40.567Z,0.00
2019-05-28T01:56:40.560Z,0.00
2019-05-28T01:57:40.591Z,0.00
2019-05-28T01:58:40.564Z,0.00
2019-05-28T01:59:40.560Z,0.00
2019-05-28T02:00:40.561Z,0.00
2019-05-28T02:01:40.565Z,0.00
2019-05-28T02:02:40.595Z,0.00
2019-05-28T02:03:40.564Z,0.00
2019-05-28T02:04:40.570Z,0.00
2019-05-28T02:05:40.566Z,0.00
2019-05-28T02:06:40.561Z,0.00
2019-05-28T02:07:40.554Z,0.00
2019-05-28T02:08:40.589Z,0.00
2019-05-28T02:09:40.565Z,0.00
2019-05-28T02:10:40.560Z,0.00
2019-05-28T02:11:40.565Z,0.00
2019-05-28T02:12:40.567Z,0.00
2019-05-28T02:13:40.587Z,0.00
2019-05-28T02:14:40.560Z,0.00
2019-05-28T02:15:40.560Z,0.00
2019-05-28T02:16:40.566Z,0.00
2019-05-28T02:17:40.554Z,0.00
2019-05-28T02:18:40.587Z,0.00
2019-05-28T02:19:40.555Z,0.00
2019-05-28T02:20:40.555Z,0.00
2019-05-28T02:21:40.548Z,0.00
2019-05-28T02:22:40.549Z,0.00
2019-05-28T02:23:40.578Z,0.00
2019-05-28T02:24:40.549Z,0.00
2019-05-28T02:25:40.546Z,0.00
2019-05-28T02:26:40.549Z,0.00
2019-05-28T02:27:40.547Z,0.00
2019-05-28T02:28:40.585Z,0.00
2019-05-28T02:29:40.546Z,0.00
2019-05-28T02:30:40.545Z,0.00
2019-05-28T02:31:40.543Z,0.00
2019-05-28T02:32:40.543Z,0.00
2019-05-28T02:33:40.569Z,0.00
2019-05-28T02:34:40.547Z,0.00
2019-05-28T02:35:40.543Z,0.00
2019-05-28T02:36:40.538Z,0.00
2019-05-28T02:37:40.544Z,0.00
2019-05-28T02:38:40.578Z,0.00
2019-05-28T02:39:40.535Z,0.00
2019-05-28T02:40:40.547Z,0.00
2019-05-28T02:41:40.547Z,0.00
2019-05-28T02:42:40.540Z,0.00
2019-05-28T02:43:40.568Z,0.00
2019-05-28T02:44:40.541Z,0.00
2019-05-28T02:45:40.545Z,0.00
2019-05-28T02:46:40.536Z,0.00
2019-05-28T02:47:40.539Z,0.00
2019-05-28T02:48:40.570Z,0.00
2019-05-28T02:49:40.533Z,0.00
2019-05-28T02:50:40.529Z,0.00
2019-05-28T02:51:40.535Z,0.00
2019-05-28T02:52:40.541Z,0.00
2019-05-28T02:53:40.559Z,0.00
2019-05-28T02:54:40.531Z,0.00
2019-05-28T02:55:40.531Z,0.00
2019-05-28T02:56:40.527Z,0.00
2019-05-28T02:57:40.535Z,0.00
2019-05-28T02:58:40.563Z,0.00
2019-05-28T02:59:40.523Z,0.00
2019-05-28T03:00:40.532Z,0.00
2019-05-28T03:01:44.407Z,0.00
2019-05-28T03:02:40.536Z,0.00
2019-05-28T03:03:40.562Z,0.00
2019-05-28T03:04:40.529Z,0.00
2019-05-28T03:05:40.525Z,0.00
2019-05-28T03:06:40.557Z,0.00
2019-05-28T03:07:40.524Z,0.00
2019-05-28T03:08:40.525Z,0.00
2019-05-28T03:09:40.525Z,0.00
2019-05-28T03:11:05.484Z,0.00
2019-05-28T03:11:40.550Z,0.00
2019-05-28T03:12:40.548Z,0.00
2019-05-28T03:13:40.527Z,0.00
2019-05-28T03:14:40.518Z,5.63
2019-05-28T03:15:40.517Z,5.63
2019-05-28T03:16:40.545Z,5.63
2019-05-28T03:17:40.519Z,5.63
2019-05-28T03:18:40.524Z,5.63
2019-05-28T03:19:40.516Z,5.63
2019-05-28T03:20:40.515Z,5.63
2019-05-28T03:21:40.559Z,5.63
2019-05-28T03:22:40.514Z,5.63
2019-05-28T03:23:40.515Z,11.25
2019-05-28T03:24:40.511Z,5.63
2019-05-28T03:25:40.513Z,5.63
2019-05-28T03:26:40.546Z,5.63
2019-05-28T03:27:40.519Z,11.25
2019-05-28T03:28:40.513Z,11.25
2019-05-28T03:29:40.536Z,11.25
2019-05-28T03:30:40.515Z,11.25
2019-05-28T03:31:40.517Z,11.25
2019-05-28T03:32:40.558Z,11.25
2019-05-28T03:33:40.530Z,11.25
2019-05-28T03:34:42.224Z,16.88
2019-05-28T03:35:40.529Z,16.88
2019-05-28T03:36:40.534Z,16.88
2019-05-28T03:37:40.566Z,16.88
2019-05-28T03:38:40.530Z,16.88
2019-05-28T03:39:40.536Z,16.88
2019-05-28T03:40:40.634Z,16.88
2019-05-28T03:41:40.530Z,16.88
2019-05-28T03:42:40.559Z,16.88
2019-05-28T03:43:40.532Z,16.88
2019-05-28T03:44:40.533Z,16.88
2019-05-28T03:45:40.534Z,16.88
2019-05-28T03:46:40.553Z,22.50
2019-05-28T03:47:40.555Z,22.50
2019-05-28T03:48:40.534Z,22.50
2019-05-28T03:49:40.553Z,22.50
2019-05-28T03:50:40.524Z,22.50
2019-05-28T03:51:40.526Z,22.50
2019-05-28T03:52:40.550Z,28.13
2019-05-28T03:53:40.523Z,28.13
2019-05-28T03:54:40.525Z,28.13
2019-05-28T03:55:40.523Z,33.75
2019-05-28T03:56:40.524Z,33.75
2019-05-28T03:57:40.545Z,33.75
2019-05-28T03:58:40.522Z,39.38
2019-05-28T03:59:40.514Z,39.38
2019-05-28T04:00:40.526Z,39.38
2019-05-28T04:01:40.488Z,45.00
2019-05-28T04:02:40.507Z,45.00
2019-05-28T04:03:40.488Z,50.63
2019-05-28T04:04:40.489Z,50.63
2019-05-28T04:05:40.487Z,56.25
2019-05-28T04:06:40.489Z,56.25
2019-05-28T04:07:40.528Z,61.88
2019-05-28T04:08:40.479Z,67.50
2019-05-28T04:09:40.480Z,73.13
2019-05-28T04:10:40.480Z,78.75
2019-05-28T04:11:44.869Z,78.75
2019-05-28T04:12:40.507Z,84.38
2019-05-28T04:13:40.476Z,84.38
2019-05-28T04:14:40.473Z,90.00
2019-05-28T04:15:40.473Z,90.00
2019-05-28T04:16:40.470Z,90.00
2019-05-28T04:17:40.501Z,73.13
2019-05-28T04:18:40.478Z,61.88
2019-05-28T04:19:40.474Z,61.88
2019-05-28T04:20:40.585Z,78.75
2019-05-28T04:21:40.465Z,90.00
2019-05-28T04:22:40.494Z,95.63
2019-05-28T04:23:41.755Z,90.00
2019-05-28T04:24:40.471Z,90.00
2019-05-28T04:25:40.468Z,84.38
2019-05-28T04:26:40.471Z,84.38
2019-05-28T04:27:40.496Z,84.38
2019-05-28T04:28:40.463Z,84.38
2019-05-28T04:29:40.466Z,73.13
2019-05-28T04:30:40.473Z,73.13
2019-05-28T04:31:40.512Z,84.38
2019-05-28T04:32:41.547Z,90.00
2019-05-28T04:33:40.463Z,90.00
2019-05-28T04:34:40.469Z,78.75
2019-05-28T04:35:40.460Z,84.38
2019-05-28T04:36:40.461Z,90.00
2019-05-28T04:37:40.491Z,84.38
2019-05-28T04:38:40.458Z,78.75
2019-05-28T04:39:40.462Z,84.38
2019-05-28T04:40:40.487Z,84.38
2019-05-28T04:41:40.468Z,84.38
2019-05-28T04:42:40.470Z,78.75
2019-05-28T04:43:40.483Z,78.75
2019-05-28T04:44:40.459Z,73.13
2019-05-28T04:45:40.458Z,73.13
2019-05-28T04:46:40.459Z,67.50
2019-05-28T04:47:40.458Z,61.88
2019-05-28T04:48:40.479Z,56.25
2019-05-28T04:49:40.456Z,56.25
2019-05-28T04:50:40.452Z,78.75
2019-05-28T04:51:40.453Z,95.63
2019-05-28T04:52:40.451Z,101.25
2019-05-28T04:53:40.484Z,106.88
2019-05-28T04:54:40.453Z,106.88
2019-05-28T04:55:40.456Z,106.88
2019-05-28T04:56:40.455Z,101.25
2019-05-28T04:57:40.449Z,95.63
2019-05-28T04:58:40.480Z,84.38
2019-05-28T04:59:40.452Z,78.75
2019-05-28T05:00:40.560Z,90.00
2019-05-28T05:01:40.445Z,84.38
2019-05-28T05:02:55.530Z,78.75
2019-05-28T05:03:40.474Z,73.13
2019-05-28T05:04:40.449Z,84.38
2019-05-28T05:05:40.446Z,90.00
2019-05-28T05:06:40.449Z,84.38
2019-05-28T05:07:40.445Z,95.63
2019-05-28T05:08:40.478Z,112.50
2019-05-28T05:09:40.446Z,112.50
2019-05-28T05:10:40.451Z,106.88
2019-05-28T05:11:40.442Z,101.25
2019-05-28T05:12:40.445Z,112.50
2019-05-28T05:13:40.471Z,151.88
2019-05-28T05:14:40.440Z,174.38
2019-05-28T05:15:40.470Z,196.88
2019-05-28T05:16:40.438Z,219.38
2019-05-28T05:17:40.436Z,230.63
2019-05-28T05:18:40.440Z,225.00
2019-05-28T05:19:40.465Z,241.88
2019-05-28T05:20:40.440Z,253.13
2019-05-28T05:21:40.446Z,230.63
2019-05-28T05:22:40.441Z,253.13
2019-05-28T05:23:40.462Z,315.00
2019-05-28T05:24:40.440Z,337.50
2019-05-28T05:25:40.438Z,337.50
2019-05-28T05:26:40.443Z,331.88
2019-05-28T05:27:40.450Z,348.75
2019-05-28T05:28:40.461Z,376.88
2019-05-28T05:29:40.433Z,388.13
2019-05-28T05:30:40.439Z,405.00
2019-05-28T05:31:40.464Z,421.88
2019-05-28T05:32:40.442Z,444.38
2019-05-28T05:33:40.434Z,461.25
2019-05-28T05:34:40.464Z,483.75
2019-05-28T05:35:40.438Z,506.25
2019-05-28T05:36:40.436Z,528.75
2019-05-28T05:37:40.440Z,545.63
2019-05-28T05:38:40.432Z,562.50
2019-05-28T05:39:40.530Z,573.75
2019-05-28T05:40:40.536Z,579.38
2019-05-28T05:41:40.469Z,585.00
2019-05-28T05:42:40.440Z,573.75
2019-05-28T05:43:40.453Z,562.50
2019-05-28T05:44:40.429Z,556.88
2019-05-28T05:45:40.468Z,556.88
2019-05-28T05:46:40.436Z,545.63
2019-05-28T05:47:40.434Z,545.63
2019-05-28T05:48:40.441Z,551.25
2019-05-28T05:49:40.465Z,573.75
2019-05-28T05:50:40.436Z,596.25
2019-05-28T05:51:40.445Z,618.75
2019-05-28T05:52:40.463Z,635.63
2019-05-28T05:53:40.457Z,646.88
2019-05-28T05:54:40.463Z,658.13
2019-05-28T05:55:40.443Z,669.38
2019-05-28T05:56:40.448Z,686.25
2019-05-28T05:57:40.438Z,708.75
2019-05-28T05:58:40.450Z,725.63
2019-05-28T05:59:40.476Z,748.13
2019-05-28T06:00:40.444Z,770.63
2019-05-28T06:01:40.445Z,793.13
2019-05-28T06:02:40.447Z,810.00
2019-05-28T06:03:41.891Z,826.88
2019-05-28T06:04:40.477Z,843.75
2019-05-28T06:05:40.457Z,855.00
2019-05-28T06:06:40.447Z,866.25
2019-05-28T06:07:40.456Z,871.88
2019-05-28T06:08:40.454Z,877.50
2019-05-28T06:09:40.485Z,877.50
2019-05-28T06:10:40.454Z,883.13
2019-05-28T06:11:40.453Z,888.75
2019-05-28T06:12:40.457Z,894.38
2019-05-28T06:13:40.462Z,900.00
2019-05-28T06:14:40.494Z,900.00
2019-05-28T06:15:40.461Z,911.25
2019-05-28T06:16:40.454Z,916.88
2019-05-28T06:17:40.462Z,922.50
2019-05-28T06:18:40.463Z,928.13
2019-05-28T06:19:40.498Z,939.38
2019-05-28T06:20:40.553Z,939.38
2019-05-28T06:21:40.471Z,939.38
2019-05-28T06:22:40.465Z,939.38
2019-05-28T06:23:40.753Z,939.38
2019-05-28T06:24:40.498Z,950.63
2019-05-28T06:25:40.473Z,967.50
2019-05-28T06:26:40.468Z,990.00
2019-05-28T06:27:40.472Z,1012.50
2019-05-28T06:28:40.478Z,1035.00
2019-05-28T06:29:40.502Z,1057.50
2019-05-28T06:30:40.480Z,1085.63
2019-05-28T06:31:40.479Z,1096.88
2019-05-28T06:32:40.478Z,1119.38
2019-05-28T06:33:55.767Z,1130.63
2019-05-28T06:34:40.518Z,1136.25
2019-05-28T06:35:40.489Z,1153.13
2019-05-28T06:36:40.489Z,1164.38
2019-05-28T06:37:40.489Z,1175.63
2019-05-28T06:38:40.494Z,1186.88
2019-05-28T06:39:40.527Z,1198.13
2019-05-28T06:40:40.493Z,1209.38
2019-05-28T06:41:40.527Z,1215.00
2019-05-28T06:42:40.515Z,1220.63
2019-05-28T06:43:40.506Z,1220.63
2019-05-28T06:44:40.512Z,1220.63
2019-05-28T06:45:40.538Z,1209.38
2019-05-28T06:46:40.512Z,1215.00
2019-05-28T06:47:45.205Z,1209.38
2019-05-28T06:48:40.512Z,1209.38
2019-05-28T06:49:40.513Z,1215.00
2019-05-28T06:50:40.552Z,1220.63
2019-05-28T06:51:40.516Z,1231.88
2019-05-28T06:52:40.519Z,1243.13
2019-05-28T06:53:40.520Z,1243.13
2019-05-28T06:54:40.521Z,1243.13
2019-05-28T06:55:40.552Z,1276.88
2019-05-28T06:56:40.530Z,1288.13
2019-05-28T06:57:40.526Z,1288.13
2019-05-28T06:58:40.654Z,1282.50
2019-05-28T06:59:40.538Z,1271.25
2019-05-28T07:00:40.563Z,1271.25
2019-05-28T07:01:40.558Z,1276.88
2019-05-28T07:02:40.539Z,1293.75
2019-05-28T07:03:40.552Z,1327.50
2019-05-28T07:04:40.546Z,1333.13
2019-05-28T07:05:40.575Z,1344.38
2019-05-28T07:06:40.555Z,1338.75
2019-05-28T07:07:40.552Z,1321.88
2019-05-28T07:08:40.593Z,1310.63
2019-05-28T07:09:40.560Z,1288.13
2019-05-28T07:10:56.568Z,1276.88
2019-05-28T07:11:40.563Z,1271.25
2019-05-28T07:12:40.563Z,1254.38
2019-05-28T07:13:40.571Z,1260.00
2019-05-28T07:14:40.578Z,1265.63
2019-05-28T07:15:40.609Z,1276.88
2019-05-28T07:16:52.788Z,1288.13
2019-05-28T07:17:40.582Z,1299.38
2019-05-28T07:18:40.581Z,1299.38
2019-05-28T07:19:40.587Z,1299.38
2019-05-28T07:20:40.616Z,1293.75
2019-05-28T07:21:40.600Z,1282.50
2019-05-28T07:22:40.593Z,1282.50
2019-05-28T07:23:40.593Z,1276.88
2019-05-28T07:24:40.595Z,1271.25
2019-05-28T07:25:40.634Z,1271.25
2019-05-28T07:26:40.606Z,1282.50
2019-05-28T07:27:40.638Z,1293.75
2019-05-28T07:28:40.615Z,1310.63
2019-05-28T07:29:40.670Z,1338.75
2019-05-28T07:30:40.614Z,1372.50
2019-05-28T07:31:40.651Z,1383.75
2019-05-28T07:32:40.651Z,1389.38
2019-05-28T07:33:40.624Z,1440.00
2019-05-28T07:34:40.641Z,1501.88
2019-05-28T07:35:45.622Z,1479.38
2019-05-28T07:36:40.643Z,1479.38
2019-05-28T07:37:40.663Z,1473.75
2019-05-28T07:38:40.650Z,1473.75
2019-05-28T07:39:40.642Z,1485.00
2019-05-28T07:40:40.644Z,1496.25
2019-05-28T07:41:40.658Z,1524.38
2019-05-28T07:42:40.678Z,1552.50
2019-05-28T07:43:40.656Z,1535.63
2019-05-28T07:44:40.784Z,1524.38
2019-05-28T07:45:40.660Z,1518.75
2019-05-28T07:46:40.687Z,1513.13
2019-05-28T07:47:40.697Z,1530.00
2019-05-28T07:48:40.684Z,1552.50
2019-05-28T07:49:40.680Z,1558.13
2019-05-28T07:50:40.700Z,1597.50
2019-05-28T07:51:40.690Z,1693.13
2019-05-28T07:52:40.741Z,1771.88
2019-05-28T07:53:40.888Z,1726.88
2019-05-28T07:54:40.695Z,1710.00
2019-05-28T07:55:40.699Z,1698.75
2019-05-28T07:56:40.719Z,1693.13
2019-05-28T07:57:40.743Z,1676.25
2019-05-28T07:58:40.713Z,1687.50
2019-05-28T07:59:40.718Z,1710.00
2019-05-28T08:00:40.727Z,1704.38
2019-05-28T08:01:40.731Z,1715.63
2019-05-28T08:02:40.767Z,1721.25
2019-05-28T08:03:40.729Z,1738.13
2019-05-28T08:04:47.309Z,1788.75
2019-05-28T08:05:40.751Z,1794.38
2019-05-28T08:06:54.169Z,1766.25
2019-05-28T08:07:40.783Z,1743.75
2019-05-28T08:08:40.745Z,1800.00
2019-05-28T08:09:40.759Z,1833.75
2019-05-28T08:10:40.787Z,1856.25
2019-05-28T08:11:40.771Z,1839.38
2019-05-28T08:12:40.796Z,1850.63
2019-05-28T08:13:41.544Z,1867.50
2019-05-28T08:14:40.782Z,1890.00
2019-05-28T08:15:40.782Z,1940.63
2019-05-28T08:16:52.342Z,1912.50
2019-05-28T08:17:40.816Z,1946.25
2019-05-28T08:18:40.797Z,1918.13
2019-05-28T08:19:40.797Z,1912.50
2019-05-28T08:20:40.959Z,1867.50
2019-05-28T08:21:40.811Z,1828.13
2019-05-28T08:22:42.638Z,1828.13
2019-05-28T08:23:40.815Z,1867.50
2019-05-28T08:24:40.822Z,1890.00
2019-05-28T08:25:47.433Z,1856.25
2019-05-28T08:26:40.829Z,1856.25
2019-05-28T08:27:40.865Z,1890.00
2019-05-28T08:28:40.856Z,1878.75
2019-05-28T08:29:40.844Z,1890.00
2019-05-28T08:30:40.850Z,1878.75
2019-05-28T08:31:40.857Z,1856.25
2019-05-28T08:32:40.909Z,1828.13
2019-05-28T08:33:40.864Z,1811.25
2019-05-28T08:34:40.871Z,1788.75
2019-05-28T08:35:40.880Z,1788.75
2019-05-28T08:36:40.889Z,1777.50
2019-05-28T08:37:40.906Z,1760.63
2019-05-28T08:38:40.882Z,1771.88
2019-05-28T08:39:40.890Z,1783.13
2019-05-28T08:40:40.893Z,1783.13
2019-05-28T08:41:40.899Z,1800.00
2019-05-28T08:42:40.950Z,1811.25
2019-05-28T08:43:40.934Z,1828.13
2019-05-28T08:44:40.929Z,1845.00
2019-05-28T08:45:42.797Z,1856.25
2019-05-28T08:46:40.919Z,1850.63
2019-05-28T08:47:40.920Z,1800.00
2019-05-28T08:48:40.958Z,1749.38
2019-05-28T08:49:40.932Z,1676.25
2019-05-28T08:50:40.936Z,1620.00
2019-05-28T08:51:40.944Z,1563.75
2019-05-28T08:52:40.944Z,1507.50
2019-05-28T08:53:41.343Z,1462.50
2019-05-28T08:54:40.954Z,1440.00
2019-05-28T08:55:40.960Z,1445.63
2019-05-28T08:56:40.969Z,1445.63
2019-05-28T08:57:40.978Z,1423.13
2019-05-28T08:58:41.016Z,1406.25
2019-05-28T08:59:40.975Z,1361.25
2019-05-28T09:00:41.153Z,1316.25
2019-05-28T09:01:40.992Z,1299.38
2019-05-28T09:02:40.994Z,1293.75
2019-05-28T09:03:41.026Z,1231.88
2019-05-28T09:04:41.004Z,1108.13
2019-05-28T09:05:41.004Z,1057.50
2019-05-28T09:06:41.015Z,1029.38
2019-05-28T09:07:41.032Z,1001.25
2019-05-28T09:08:41.068Z,928.13
2019-05-28T09:09:41.026Z,832.50
2019-05-28T09:10:41.039Z,759.38
2019-05-28T09:11:41.031Z,708.75
2019-05-28T09:12:41.047Z,680.63
2019-05-28T09:13:41.089Z,680.63
2019-05-28T09:14:55.693Z,691.88
2019-05-28T09:15:41.049Z,708.75
2019-05-28T09:16:41.061Z,731.25
2019-05-28T09:17:41.076Z,748.13
2019-05-28T09:18:41.091Z,770.63
2019-05-28T09:19:41.097Z,815.63
2019-05-28T09:20:41.163Z,866.25
2019-05-28T09:21:41.087Z,911.25
2019-05-28T09:22:41.085Z,956.25
2019-05-28T09:23:41.090Z,1023.75
2019-05-28T09:24:41.110Z,1096.88
2019-05-28T09:25:41.089Z,1170.00
2019-05-28T09:26:41.098Z,1237.50
2019-05-28T09:27:41.091Z,1299.38
2019-05-28T09:28:41.145Z,1344.38
2019-05-28T09:29:41.130Z,1378.13
2019-05-28T09:30:41.108Z,1400.63
2019-05-28T09:31:41.108Z,1411.88
2019-05-28T09:32:41.183Z,1423.13
2019-05-28T09:33:41.141Z,1445.63
2019-05-28T09:34:41.113Z,1462.50
2019-05-28T09:35:44.469Z,1490.63
2019-05-28T09:36:41.128Z,1518.75
2019-05-28T09:37:41.130Z,1535.63
2019-05-28T09:38:41.157Z,1535.63
2019-05-28T09:39:41.130Z,1530.00
2019-05-28T09:40:50.194Z,1513.13
2019-05-28T09:41:41.140Z,1473.75
2019-05-28T09:42:41.141Z,1456.88
2019-05-28T09:43:41.179Z,1445.63
2019-05-28T09:44:41.195Z,1451.25
2019-05-28T09:45:41.157Z,1440.00
2019-05-28T09:46:41.164Z,1423.13
2019-05-28T09:47:41.162Z,1389.38
2019-05-28T09:48:41.170Z,1350.00
2019-05-28T09:49:41.195Z,1310.63
2019-05-28T09:50:41.178Z,1276.88
2019-05-28T09:51:41.195Z,1248.75
2019-05-28T09:52:53.525Z,1226.25
2019-05-28T09:53:41.188Z,1220.63
2019-05-28T09:54:41.218Z,1209.38
2019-05-28T09:55:41.245Z,1192.50
2019-05-28T09:56:41.381Z,1153.13
2019-05-28T09:57:47.314Z,1130.63
2019-05-28T09:58:41.206Z,1125.00
2019-05-28T09:59:42.148Z,1147.50
2019-05-28T10:00:56.774Z,1181.25
2019-05-28T10:01:41.248Z,1231.88
2019-05-28T10:02:41.229Z,1288.13
2019-05-28T10:03:41.225Z,1338.75
2019-05-28T10:04:49.264Z,1366.88
2019-05-28T10:05:54.914Z,1383.75
2019-05-28T10:06:41.841Z,1395.00
2019-05-28T10:07:41.260Z,1395.00
2019-05-28T10:08:41.268Z,1378.13
2019-05-28T10:09:41.297Z,1383.75
2019-05-28T10:10:41.287Z,1383.75
2019-05-28T10:11:41.281Z,1400.63
2019-05-28T10:12:41.266Z,1417.50
2019-05-28T10:13:41.909Z,1389.38
2019-05-28T10:14:44.202Z,1361.25
2019-05-28T10:15:41.321Z,1338.75
2019-05-28T10:16:41.286Z,1333.13
2019-05-28T10:17:41.318Z,1350.00
2019-05-28T10:18:41.298Z,1383.75
2019-05-28T10:19:41.297Z,1423.13
2019-05-28T10:20:41.345Z,1485.00
2019-05-28T10:21:41.310Z,1530.00
2019-05-28T10:22:41.322Z,1591.88
2019-05-28T10:23:41.343Z,1620.00
2019-05-28T10:24:41.335Z,1614.38
2019-05-28T10:25:41.398Z,1631.25
2019-05-28T10:26:41.346Z,1681.88
2019-05-28T10:27:59.419Z,1710.00
2019-05-28T10:28:41.341Z,1721.25
2019-05-28T10:29:41.343Z,1732.50
2019-05-28T10:30:41.382Z,1783.13
2019-05-28T10:31:41.358Z,1856.25
2019-05-28T10:32:41.370Z,1912.50
2019-05-28T10:33:41.372Z,1991.25
2019-05-28T10:34:41.377Z,2070.00
2019-05-28T10:35:41.408Z,2070.00
2019-05-28T10:36:41.381Z,2092.50
2019-05-28T10:37:41.392Z,2053.13
2019-05-28T10:38:41.395Z,1968.75
2019-05-28T10:39:41.402Z,1890.00
2019-05-28T10:40:41.585Z,1873.13
2019-05-28T10:41:41.412Z,1839.38
2019-05-28T10:42:41.416Z,1850.63
2019-05-28T10:43:41.425Z,1895.63
2019-05-28T10:44:45.021Z,1980.00
2019-05-28T10:45:41.593Z,1957.50
2019-05-28T10:46:41.444Z,1991.25
2019-05-28T10:47:41.452Z,2013.75
2019-05-28T10:48:41.457Z,2109.38
2019-05-28T10:49:41.477Z,2345.63
2019-05-28T10:50:41.497Z,2385.00
2019-05-28T10:51:41.483Z,2379.38
2019-05-28T10:52:41.493Z,2373.75
2019-05-28T10:53:41.489Z,2525.63
2019-05-28T10:54:41.533Z,2716.88
2019-05-28T10:55:41.540Z,2587.50
2019-05-28T10:56:41.523Z,2407.50
2019-05-28T10:57:41.564Z,2216.25
2019-05-28T10:58:41.533Z,2160.00
2019-05-28T10:59:41.563Z,2176.88
2019-05-28T11:00:41.579Z,2193.75
2019-05-28T11:01:41.561Z,2205.00
2019-05-28T11:02:41.566Z,2188.13
2019-05-28T11:03:41.566Z,2131.88
2019-05-28T11:04:41.582Z,2025.00
2019-05-28T11:05:41.607Z,1906.88
2019-05-28T11:06:51.309Z,1805.63
2019-05-28T11:07:41.596Z,1715.63
2019-05-28T11:08:41.619Z,1636.88
2019-05-28T11:09:41.664Z,1575.00
2019-05-28T11:10:41.621Z,1546.88
2019-05-28T11:11:41.627Z,1546.88
2019-05-28T11:12:41.639Z,1569.38
2019-05-28T11:13:52.634Z,1586.25
2019-05-28T11:14:41.680Z,1597.50
2019-05-28T11:15:41.690Z,1580.63
2019-05-28T11:16:41.670Z,1563.75
2019-05-28T11:17:41.695Z,1558.13
2019-05-28T11:18:41.694Z,1580.63
2019-05-28T11:19:41.690Z,1575.00
2019-05-28T11:20:42.176Z,1586.25
2019-05-28T11:21:41.710Z,1580.63
2019-05-28T11:22:41.716Z,1569.38
2019-05-28T11:23:41.727Z,1541.25
2019-05-28T11:24:41.729Z,1518.75
2019-05-28T11:25:41.764Z,1507.50
2019-05-28T11:26:41.746Z,1501.88
2019-05-28T11:27:41.750Z,1479.38
2019-05-28T11:28:41.757Z,1456.88
2019-05-28T11:29:41.781Z,1423.13
2019-05-28T11:30:42.052Z,1395.00
2019-05-28T11:31:41.776Z,1383.75
2019-05-28T11:32:41.784Z,1383.75
2019-05-28T11:33:41.797Z,1389.38
2019-05-28T11:34:41.798Z,1395.00
2019-05-28T11:35:41.836Z,1400.63
2019-05-28T11:36:41.810Z,1400.63
2019-05-28T11:37:41.816Z,1423.13
2019-05-28T11:38:41.823Z,1440.00
2019-05-28T11:39:41.830Z,1473.75
2019-05-28T11:40:41.862Z,1518.75
2019-05-28T11:41:43.182Z,1569.38
2019-05-28T11:42:41.857Z,1614.38
2019-05-28T11:43:41.858Z,1642.50
2019-05-28T11:44:41.859Z,1653.75
2019-05-28T11:45:41.890Z,1653.75
2019-05-28T11:46:41.879Z,1659.38
2019-05-28T11:47:41.881Z,1653.75
2019-05-28T11:48:41.904Z,1676.25
2019-05-28T11:49:41.891Z,1726.88
2019-05-28T11:50:41.924Z,1755.00
2019-05-28T11:51:41.903Z,1777.50
2019-05-28T11:52:41.938Z,1777.50
2019-05-28T11:53:41.912Z,1766.25
2019-05-28T11:54:41.925Z,1755.00
2019-05-28T11:55:42.130Z,1749.38
2019-05-28T11:56:41.929Z,1738.13
2019-05-28T11:57:41.949Z,1726.88
2019-05-28T11:58:41.952Z,1726.88
2019-05-28T11:59:41.959Z,1738.13
2019-05-28T12:00:41.983Z,1743.75
2019-05-28T12:01:41.963Z,1743.75
2019-05-28T12:02:42.005Z,1738.13
2019-05-28T12:03:41.979Z,1738.13
2019-05-28T12:04:41.987Z,1738.13
2019-05-28T12:05:42.018Z,1732.50
2019-05-28T12:06:41.999Z,1726.88
2019-05-28T12:07:42.014Z,1721.25
2019-05-28T12:08:42.012Z,1721.25
2019-05-28T12:09:42.015Z,1704.38
2019-05-28T12:10:42.051Z,1681.88
2019-05-28T12:11:42.032Z,1670.63
2019-05-28T12:12:42.049Z,1642.50
2019-05-28T12:13:42.047Z,1620.00
2019-05-28T12:14:42.052Z,1569.38
2019-05-28T12:15:42.094Z,1518.75
2019-05-28T12:16:42.063Z,1462.50
2019-05-28T12:17:45.138Z,1423.13
2019-05-28T12:18:42.081Z,1372.50
2019-05-28T12:19:42.091Z,1327.50
2019-05-28T12:20:42.118Z,1299.38
2019-05-28T12:21:42.133Z,1276.88
2019-05-28T12:22:42.909Z,1265.63
2019-05-28T12:23:42.127Z,1271.25
2019-05-28T12:24:42.119Z,1282.50
2019-05-28T12:25:42.133Z,1305.00
2019-05-28T12:26:42.290Z,1316.25
2019-05-28T12:27:42.135Z,1338.75
2019-05-28T12:28:42.140Z,1361.25
2019-05-28T12:29:51.511Z,1383.75
2019-05-28T12:30:43.039Z,1400.63
2019-05-28T12:31:42.197Z,1411.88
2019-05-28T12:32:42.198Z,1417.50
2019-05-28T12:33:42.187Z,1434.38